createdAt,value
2019-04-23T00:02:58.822Z,44.30
2019-04-23T00:06:15.519Z,44.10
2019-04-23T00:09:27.650Z,44.10
2019-04-23T00:12:23.049Z,43.70
2019-04-23T00:15:35.729Z,43.60
2019-04-23T00:18:36.855Z,43.90
2019-04-23T00:25:25.531Z,44.20
2019-04-23T00:28:16.190Z,44.20
2019-04-23T00:31:24.023Z,44.00
2019-04-23T00:34:34.397Z,43.80
2019-04-23T00:43:50.972Z,44.60
2019-04-23T00:46:55.763Z,45.00
2019-04-23T00:50:05.808Z,45.30
2019-04-23T00:53:05.880Z,45.30
2019-04-23T00:56:32.655Z,45.40
2019-04-23T00:59:21.257Z,45.30
2019-04-23T01:02:33.635Z,45.00
2019-04-23T01:05:31.158Z,45.20
2019-04-23T01:08:36.755Z,45.10
2019-04-23T01:11:43.302Z,46.00
2019-04-23T01:14:48.504Z,45.50
2019-04-23T01:18:02.170Z,46.00
2019-04-23T01:20:54.049Z,46.00
2019-04-23T01:24:14.106Z,46.00
2019-04-23T01:33:55.462Z,46.50
2019-04-23T01:37:03.934Z,46.50
2019-04-23T01:40:34.256Z,46.70
2019-04-23T01:43:38.226Z,46.50
2019-04-23T01:46:32.149Z,46.60
2019-04-23T01:49:35.974Z,46.40
2019-04-23T01:52:50.626Z,46.60
2019-04-23T01:55:46.761Z,46.50
2019-04-23T01:58:57.119Z,46.60
2019-04-23T02:01:58.493Z,46.80
2019-04-23T02:05:09.826Z,46.60
2019-04-23T02:08:08.281Z,47.00
2019-04-23T02:11:11.474Z,47.30
2019-04-23T02:14:20.944Z,47.30
2019-04-23T02:17:34.093Z,47.40
2019-04-23T02:20:55.583Z,47.70
2019-04-23T02:23:55.690Z,48.00
2019-04-23T02:27:07.306Z,47.70
2019-04-23T02:30:37.564Z,47.80
2019-04-23T02:36:29.209Z,47.90
2019-04-23T02:39:46.485Z,47.70
2019-04-23T02:45:59.116Z,47.60
2019-04-23T02:51:59.446Z,47.60
2019-04-23T02:55:29.408Z,47.70
2019-04-23T02:58:38.674Z,47.40
2019-04-23T03:01:31.989Z,47.80
2019-04-23T03:04:47.722Z,47.80
2019-04-23T03:07:52.734Z,48.20
2019-04-23T03:11:01.323Z,48.10
2019-04-23T03:14:04.253Z,48.00
2019-04-23T03:17:09.678Z,48.10
2019-04-23T03:23:51.930Z,48.40
2019-04-23T03:29:49.463Z,47.90
2019-04-23T03:38:51.473Z,48.10
2019-04-23T03:45:30.199Z,48.70
2019-04-23T03:48:25.388Z,48.40
2019-04-23T03:54:37.715Z,47.80
2019-04-23T03:57:58.061Z,48.10
2019-04-23T04:10:09.103Z,48.30
2019-04-23T04:13:20.057Z,49.30
2019-04-23T04:16:21.745Z,49.50
2019-04-23T04:19:38.393Z,49.40
2019-04-23T04:25:42.848Z,50.00
2019-04-23T04:28:46.442Z,50.20
2019-04-23T04:31:55.198Z,49.90
2019-04-23T04:38:32.397Z,50.60
2019-04-23T04:41:28.976Z,50.40
2019-04-23T04:50:43.645Z,50.90
2019-04-23T05:03:23.964Z,49.00
2019-04-23T05:09:43.802Z,48.40
2019-04-23T05:12:59.836Z,48.20
2019-04-23T05:15:44.986Z,48.00
2019-04-23T05:19:12.597Z,47.60
2019-04-23T05:22:10.240Z,47.30
2019-04-23T05:25:12.577Z,47.10
2019-04-23T05:28:24.996Z,46.90
2019-04-23T05:31:23.141Z,46.80
2019-04-23T05:34:29.477Z,46.50
2019-04-23T05:37:50.420Z,46.40
2019-04-23T05:43:58.026Z,46.10
2019-04-23T05:50:15.577Z,46.00
2019-04-23T05:56:15.188Z,45.80
2019-04-23T05:59:17.687Z,45.50
2019-04-23T06:02:32.341Z,45.90
2019-04-23T06:05:38.734Z,45.20
2019-04-23T06:08:39.145Z,44.70
2019-04-23T06:11:52.579Z,44.60
2019-04-23T06:14:55.557Z,44.10
2019-04-23T06:18:02.021Z,43.70
2019-04-23T06:24:19.890Z,43.70
2019-04-23T06:27:19.861Z,44.20
2019-04-23T06:30:26.498Z,44.90
2019-04-23T06:39:55.105Z,45.30
2019-04-23T06:43:04.997Z,45.10
2019-04-23T06:46:11.887Z,45.20
2019-04-23T06:55:34.184Z,44.50
2019-04-23T06:58:37.599Z,44.40
2019-04-23T07:01:51.085Z,44.40
2019-04-23T07:05:01.773Z,44.50
2019-04-23T07:08:15.210Z,44.30
2019-04-23T07:11:12.119Z,44.20
2019-04-23T07:13:58.520Z,44.00
2019-04-23T07:17:10.409Z,44.00
2019-04-23T07:20:25.201Z,44.10
2019-04-23T07:23:29.995Z,44.20
2019-04-23T07:26:36.319Z,44.00
2019-04-23T07:29:43.577Z,44.00
2019-04-23T07:32:43.113Z,43.90
2019-04-23T07:35:51.777Z,43.40
2019-04-23T07:39:16.011Z,43.20
2019-04-23T07:45:47.174Z,43.70
2019-04-23T07:48:40.575Z,43.50
2019-04-23T07:52:01.171Z,43.50
2019-04-23T07:55:06.788Z,43.50
2019-04-23T07:58:17.293Z,43.40
2019-04-23T08:01:08.203Z,43.30
2019-04-23T08:04:16.875Z,43.50
2019-04-23T08:10:28.045Z,43.70
2019-04-23T08:13:42.375Z,43.80
2019-04-23T08:16:48.539Z,43.70
2019-04-23T08:23:01.928Z,43.80
2019-04-23T08:26:34.370Z,43.50
2019-04-23T08:29:30.252Z,44.10
2019-04-23T08:32:38.563Z,44.40
2019-04-23T08:35:51.427Z,44.60
2019-04-23T08:38:58.732Z,44.30
2019-04-23T08:42:23.283Z,44.40
2019-04-23T08:45:38.404Z,44.60
2019-04-23T08:48:55.315Z,44.60
2019-04-23T08:54:58.050Z,44.50
2019-04-23T08:57:48.579Z,44.60
2019-04-23T09:01:06.816Z,44.40
2019-04-23T09:04:03.587Z,44.40
2019-04-23T09:07:16.903Z,44.50
2019-04-23T09:10:23.350Z,43.60
2019-04-23T09:16:28.612Z,43.70
2019-04-23T09:19:52.116Z,43.70
2019-04-23T09:22:38.685Z,43.60
2019-04-23T09:26:02.285Z,43.40
2019-04-23T09:29:17.332Z,43.10
2019-04-23T09:32:36.731Z,43.60
2019-04-23T09:35:35.934Z,43.20
2019-04-23T09:39:10.114Z,43.20
2019-04-23T09:42:28.226Z,43.00
2019-04-23T09:45:43.805Z,42.70
2019-04-23T09:48:50.904Z,42.60
2019-04-23T09:51:59.385Z,42.40
2019-04-23T09:58:03.157Z,42.50
2019-04-23T10:01:24.510Z,42.60
2019-04-23T10:04:13.103Z,42.60
2019-04-23T10:07:18.058Z,42.00
2019-04-23T10:10:10.372Z,42.10
2019-04-23T10:13:15.854Z,41.90
2019-04-23T10:16:23.342Z,41.80
2019-04-23T10:19:30.674Z,42.00
2019-04-23T10:22:37.595Z,42.00
2019-04-23T10:25:41.322Z,42.20
2019-04-23T10:29:02.328Z,42.50
2019-04-23T10:32:07.520Z,42.50
2019-04-23T10:35:22.115Z,42.80
2019-04-23T10:38:20.272Z,42.90
2019-04-23T10:41:25.711Z,42.50
2019-04-23T10:44:58.894Z,42.80
2019-04-23T10:51:59.618Z,42.30
2019-04-23T10:54:59.001Z,42.40
2019-04-23T10:58:08.339Z,42.00
2019-04-23T11:01:14.998Z,41.60
2019-04-23T11:04:44.378Z,41.30
2019-04-23T11:10:25.869Z,41.10
2019-04-23T11:22:56.779Z,41.80
2019-04-23T11:26:19.926Z,40.90
2019-04-23T11:29:20.892Z,40.80
2019-04-23T11:32:41.207Z,40.40
2019-04-23T11:42:01.088Z,39.90
2019-04-23T11:44:49.876Z,39.50
2019-04-23T11:54:01.562Z,39.30
2019-04-23T12:03:26.966Z,40.50
2019-04-23T12:07:00.582Z,40.50
2019-04-23T12:10:31.702Z,40.30
2019-04-23T12:13:35.827Z,39.90
2019-04-23T12:16:49.183Z,40.80
2019-04-23T12:23:03.037Z,40.90
2019-04-23T12:25:51.597Z,41.20
2019-04-23T12:28:57.600Z,41.50
2019-04-23T12:35:24.041Z,41.80
2019-04-23T12:38:33.305Z,41.90
2019-04-23T12:41:44.819Z,42.00
2019-04-23T12:44:49.231Z,42.00
2019-04-23T12:51:21.309Z,42.30
2019-04-23T12:54:06.998Z,42.40
2019-04-23T12:57:12.664Z,42.40
2019-04-23T13:00:23.248Z,42.50
2019-04-23T13:03:25.619Z,42.50
2019-04-23T13:06:27.750Z,42.60
2019-04-23T13:09:45.767Z,42.60
2019-04-23T13:16:14.506Z,42.60
2019-04-23T13:19:03.171Z,42.60
2019-04-23T13:22:07.510Z,42.50
2019-04-23T13:25:52.161Z,42.70
2019-04-23T13:29:11.855Z,42.70
2019-04-23T13:31:59.298Z,42.70
2019-04-23T13:38:15.756Z,42.90
2019-04-23T13:44:25.610Z,42.80
2019-04-23T13:47:43.319Z,42.90
2019-04-23T13:50:47.514Z,42.80
2019-04-23T14:00:07.123Z,42.80
2019-04-23T14:02:54.833Z,42.80
2019-04-23T14:06:24.501Z,42.90
2019-04-23T14:09:28.417Z,42.80
2019-04-23T14:12:22.233Z,42.80
2019-04-23T14:15:40.571Z,42.60
2019-04-23T14:18:51.560Z,42.40
2019-04-23T14:21:49.190Z,42.50
2019-04-23T14:25:02.039Z,42.40
2019-04-23T14:28:13.998Z,42.30
2019-04-23T14:31:04.726Z,42.50
2019-04-23T14:34:11.553Z,42.40
2019-04-23T14:37:18.161Z,42.50
2019-04-23T14:46:58.198Z,41.90
2019-04-23T14:50:30.817Z,42.10
2019-04-23T14:53:14.579Z,42.20
2019-04-23T14:56:17.131Z,42.00
2019-04-23T14:59:10.600Z,42.00
2019-04-23T15:02:27.193Z,42.20
2019-04-23T15:08:42.251Z,42.20
2019-04-23T15:11:46.714Z,42.30
2019-04-23T15:14:52.448Z,42.40
2019-04-23T15:17:56.056Z,42.40
2019-04-23T15:21:19.032Z,42.60
2019-04-23T15:24:15.950Z,42.50
2019-04-23T15:28:03.526Z,42.60
2019-04-23T15:30:17.429Z,42.60
2019-04-23T15:46:06.244Z,43.30
2019-04-23T15:49:07.266Z,43.40
2019-04-23T15:52:14.307Z,43.50
2019-04-23T15:55:15.062Z,43.90
2019-04-23T16:04:05.360Z,44.30
2019-04-23T16:07:29.663Z,44.30
2019-04-23T16:10:57.202Z,44.00
2019-04-23T16:14:13.097Z,44.90
2019-04-23T16:17:09.959Z,44.30
2019-04-23T16:20:40.392Z,44.90
2019-04-23T16:23:45.917Z,45.40
2019-04-23T16:26:55.900Z,45.60
2019-04-23T16:30:06.335Z,45.80
2019-04-23T16:36:12.706Z,46.40
2019-04-23T16:39:15.066Z,46.70
2019-04-23T16:42:27.273Z,47.20
2019-04-23T16:45:51.304Z,46.90
2019-04-23T16:48:42.627Z,47.10
2019-04-23T16:51:54.215Z,47.30
2019-04-23T17:07:07.099Z,48.10
2019-04-23T17:10:19.107Z,48.10
2019-04-23T17:13:33.002Z,48.20
2019-04-23T17:16:34.353Z,48.50
2019-04-23T17:19:41.024Z,48.50
2019-04-23T17:22:47.921Z,48.40
2019-04-23T17:28:59.992Z,49.70
2019-04-23T17:32:09.967Z,49.70
2019-04-23T17:35:24.389Z,49.80
2019-04-23T17:45:16.619Z,50.40
2019-04-23T17:51:19.416Z,50.10
2019-04-23T17:54:31.013Z,50.40
2019-04-23T17:57:37.604Z,50.70
2019-04-23T18:00:54.098Z,50.70
2019-04-23T18:03:55.938Z,51.30
2019-04-23T18:07:28.373Z,51.40
2019-04-23T18:10:17.937Z,51.50
2019-04-23T18:13:36.824Z,52.10
2019-04-23T18:17:03.592Z,51.30
2019-04-23T18:20:23.287Z,51.40
2019-04-23T18:23:32.665Z,51.90
2019-04-23T18:26:56.905Z,52.30
2019-04-23T18:33:49.645Z,52.10
2019-04-23T18:36:19.694Z,51.90
2019-04-23T18:39:29.674Z,52.20
2019-04-23T18:45:49.902Z,52.40
2019-04-23T18:52:19.518Z,53.20
2019-04-23T18:55:04.534Z,53.30
2019-04-23T18:58:05.286Z,52.90
2019-04-23T19:01:11.326Z,53.20
2019-04-23T19:04:41.614Z,53.40
2019-04-23T19:08:14.449Z,53.70
2019-04-23T19:11:33.962Z,53.80
2019-04-23T19:14:40.920Z,53.90
2019-04-23T19:23:51.061Z,54.20
2019-04-23T19:27:11.969Z,53.90
2019-04-23T19:30:14.054Z,54.00
2019-04-23T19:33:29.287Z,54.10
2019-04-23T19:36:27.220Z,54.10
2019-04-23T19:39:36.860Z,55.10
2019-04-23T19:45:56.516Z,54.90
2019-04-23T19:48:57.896Z,54.80
2019-04-23T19:55:07.868Z,54.90
2019-04-23T19:58:25.774Z,55.00
2019-04-23T20:04:31.839Z,54.90
2019-04-23T20:07:47.457Z,55.10
2019-04-23T20:10:41.135Z,55.40
2019-04-23T20:13:52.586Z,55.50
2019-04-23T20:19:54.573Z,55.60
2019-04-23T20:23:13.692Z,55.70
2019-04-23T20:35:54.004Z,56.40
2019-04-23T20:39:09.622Z,56.20
2019-04-23T20:45:16.509Z,56.50
2019-04-23T20:48:20.460Z,57.10
2019-04-23T20:51:24.681Z,57.40
2019-04-23T20:54:42.139Z,56.90
2019-04-23T21:01:07.599Z,57.10
2019-04-23T21:04:09.307Z,57.10
2019-04-23T21:07:15.967Z,57.80
2019-04-23T21:10:27.380Z,57.40
2019-04-23T21:13:50.430Z,57.90
2019-04-23T21:16:37.456Z,57.90
2019-04-23T21:19:50.486Z,57.80
2019-04-23T21:22:59.109Z,58.20
2019-04-23T21:28:54.248Z,58.40
2019-04-23T21:32:13.246Z,58.50
2019-04-23T21:35:30.464Z,58.80
2019-04-23T21:38:41.777Z,58.70
2019-04-23T21:41:53.507Z,58.70
2019-04-23T21:44:47.630Z,58.80
2019-04-23T21:48:00.628Z,58.80
2019-04-23T21:51:20.199Z,59.00
2019-04-23T21:54:21.317Z,59.60
2019-04-23T21:57:15.767Z,59.10
2019-04-23T22:00:24.037Z,59.40
2019-04-23T22:03:45.449Z,59.30
2019-04-23T22:06:49.309Z,59.10
2019-04-23T22:09:43.781Z,59.30
2019-04-23T22:13:02.167Z,59.00
2019-04-23T22:16:10.006Z,59.00
2019-04-23T22:22:07.733Z,59.50
2019-04-23T22:25:25.299Z,59.70
2019-04-23T22:28:40.355Z,59.30
2019-04-23T22:34:46.881Z,59.70
2019-04-23T22:37:59.007Z,59.80
2019-04-23T22:40:56.262Z,59.70
2019-04-23T22:50:28.267Z,59.80
2019-04-23T22:53:25.109Z,59.90
2019-04-23T22:56:38.008Z,59.90
2019-04-23T22:59:47.054Z,60.20
2019-04-23T23:03:24.371Z,60.20
2019-04-23T23:06:46.240Z,60.00
2019-04-23T23:09:43.605Z,59.60
2019-04-23T23:12:58.663Z,60.30
2019-04-23T23:16:06.808Z,60.00
2019-04-23T23:19:07.116Z,60.70
2019-04-23T23:22:15.499Z,60.20
2019-04-23T23:25:19.138Z,60.80
2019-04-23T23:34:51.526Z,60.90
2019-04-23T23:37:46.546Z,60.90
2019-04-23T23:44:08.128Z,61.00
2019-04-23T23:47:04.263Z,61.00
2019-04-23T23:50:09.619Z,61.60
2019-04-23T23:53:40.380Z,61.30
2019-04-23T23:56:57.961Z,61.30
